Terminal Aerodrome Forecast
Issued by NWS

Current Version | Previous Version | Text Only | Print | Product List | Glossary On
Versions: 1 2 3 4 5 6 7 8 9 10 11 12 13 14 15 16 17 18 19 20
000
FTAK31 PANC 251740
TAFACD
TAF
PACD 251740Z 2518/2618 25005KT P6SM BKN035
      TEMPO 2518/2522 BKN025
     FM260000 31010KT P6SM BKN035
     FM260600 00000KT 2SM BR SCT002 BKN050
     FM261500 17010KT 4SM BR SCT010 BKN030=

USA.gov is the U.S. government's official web portal to all federal, state and local government web resources and services.